createdAt,value
2022-11-02T00:01:41.708Z,101251.25
2022-11-02T00:04:11.341Z,101257.41
2022-11-02T00:06:41.258Z,101259.13
2022-11-02T00:09:09.681Z,101255.63
2022-11-02T00:11:39.343Z,101245.97
2022-11-02T00:14:07.603Z,101257.41
2022-11-02T00:16:38.786Z,101257.41
2022-11-02T00:19:07.746Z,101257.41
2022-11-02T00:21:37.087Z,101264.47
2022-11-02T00:24:07.432Z,101256.63
2022-11-02T00:26:38.430Z,101256.66
2022-11-02T00:29:07.253Z,101248.78
2022-11-02T00:31:35.424Z,101246.19
2022-11-02T00:34:03.682Z,101237.38
2022-11-02T00:36:32.129Z,101242.59
2022-11-02T00:39:00.294Z,101239.97
2022-11-02T00:41:28.493Z,101232.91
2022-11-02T00:43:57.999Z,101234.66
2022-11-02T00:46:26.247Z,101223.25
2022-11-02T00:48:54.448Z,101250.44
2022-11-02T00:51:22.572Z,101274.16
2022-11-02T00:53:50.766Z,101277.72
2022-11-02T00:56:20.242Z,101269.88
2022-11-02T00:58:48.497Z,101260.22
2022-11-02T01:01:21.361Z,101265.47
2022-11-02T01:03:50.085Z,101265.47
2022-11-02T01:06:18.290Z,101284.78
2022-11-02T01:08:46.663Z,101297.94
2022-11-02T01:11:17.343Z,101301.41
2022-11-02T01:13:46.614Z,101289.09
2022-11-02T01:16:17.503Z,101286.44
2022-11-02T01:18:45.936Z,101280.28
2022-11-02T01:21:14.238Z,101263.63
2022-11-02T01:23:42.519Z,101267.97
2022-11-02T01:26:11.886Z,101268.88
2022-11-02T01:28:40.656Z,101263.59
2022-11-02T01:31:10.343Z,101253.09
2022-11-02T01:33:45.397Z,101246.94
2022-11-02T01:36:15.167Z,101255.66
2022-11-02T01:38:43.434Z,101254.81
2022-11-02T01:41:13.715Z,101258.34
2022-11-02T01:43:43.942Z,101236.44
2022-11-02T01:46:20.125Z,101244.31
2022-11-02T01:49:01.026Z,101240.81
2022-11-02T01:51:33.811Z,101239.91
2022-11-02T01:54:09.884Z,101234.66
2022-11-02T01:56:41.974Z,101239.00
2022-11-02T01:59:14.255Z,101244.25
2022-11-02T02:01:42.860Z,101246.03
2022-11-02T02:04:14.424Z,101246.03
2022-11-02T02:06:43.296Z,101234.66
2022-11-02T02:09:11.743Z,101231.16
2022-11-02T02:11:42.331Z,101245.16
2022-11-02T02:14:14.452Z,101238.16
2022-11-02T02:16:58.444Z,101224.13
2022-11-02T02:19:41.938Z,101228.50
2022-11-02T02:22:32.435Z,101213.66
2022-11-02T02:25:26.590Z,101203.16
2022-11-02T02:28:11.275Z,101200.56
2022-11-02T02:30:47.332Z,101176.06
2022-11-02T02:33:25.247Z,101169.06
2022-11-02T02:36:00.744Z,101162.91
2022-11-02T02:38:34.800Z,101172.53
2022-11-02T02:41:11.846Z,101178.69
2022-11-02T02:43:46.235Z,101173.44
2022-11-02T02:46:21.726Z,101176.97
2022-11-02T02:48:51.548Z,101176.94
2022-11-02T02:51:25.773Z,101171.69
2022-11-02T02:54:03.653Z,101169.06
2022-11-02T02:56:38.163Z,101178.69
2022-11-02T02:59:15.464Z,101173.44
2022-11-02T03:01:45.785Z,101167.28
2022-11-02T03:04:15.952Z,101179.56
2022-11-02T03:06:49.717Z,101172.53
2022-11-02T03:09:25.713Z,101180.44
2022-11-02T03:12:08.527Z,101179.56
2022-11-02T03:14:52.985Z,101171.69
2022-11-02T03:17:27.741Z,101175.16
2022-11-02T03:20:06.462Z,101185.66
2022-11-02T03:22:41.121Z,101174.25
2022-11-02T03:25:15.545Z,101170.69
2022-11-02T03:27:56.284Z,101181.19
2022-11-02T03:30:29.552Z,101181.13
2022-11-02T03:33:07.142Z,101186.38
2022-11-02T03:35:42.035Z,101174.13
2022-11-02T03:38:15.782Z,101176.72
2022-11-02T03:40:47.160Z,101176.69
2022-11-02T03:43:16.657Z,101176.72
2022-11-02T03:45:50.684Z,101176.69
2022-11-02T03:48:20.386Z,101174.91
2022-11-02T03:50:52.095Z,101179.28
2022-11-02T03:53:27.964Z,101174.91
2022-11-02T03:56:03.931Z,101186.28
2022-11-02T03:58:33.873Z,101181.88
2022-11-02T04:01:08.233Z,101195.84
2022-11-02T04:03:41.850Z,101199.31
2022-11-02T04:06:10.577Z,101188.81
2022-11-02T04:08:42.297Z,101193.16
2022-11-02T04:11:28.004Z,101200.13
2022-11-02T04:14:13.457Z,101202.75
2022-11-02T04:16:43.034Z,101217.59
2022-11-02T04:19:29.348Z,101212.34
2022-11-02T04:22:15.828Z,101221.13
2022-11-02T04:25:04.478Z,101224.59
2022-11-02T04:27:34.366Z,101226.41
2022-11-02T04:30:02.544Z,101230.88
2022-11-02T04:32:49.420Z,101237.91
2022-11-02T04:35:17.643Z,101242.38
2022-11-02T04:38:04.114Z,101252.94
2022-11-02T04:40:32.482Z,101259.09
2022-11-02T04:43:00.649Z,101264.41
2022-11-02T04:45:29.150Z,101258.28
2022-11-02T04:48:03.641Z,101253.03
2022-11-02T04:50:32.398Z,101260.91
2022-11-02T04:53:02.225Z,101252.16
2022-11-02T04:55:31.165Z,101255.66
2022-11-02T04:57:59.326Z,101263.56
2022-11-02T05:00:27.495Z,101267.06
2022-11-02T05:02:55.771Z,101262.69
2022-11-02T05:05:25.644Z,101228.56
2022-11-02T05:07:53.764Z,101234.72
2022-11-02T05:10:22.955Z,101262.69
2022-11-02T05:12:58.461Z,101246.91
2022-11-02T05:15:26.682Z,101245.13
2022-11-02T05:17:55.006Z,101246.88
2022-11-02T05:20:24.556Z,101277.53
2022-11-02T05:22:53.292Z,101272.22
2022-11-02T05:25:21.438Z,101280.09
2022-11-02T05:27:49.615Z,101268.75
2022-11-02T05:30:17.982Z,101275.81
2022-11-02T05:32:46.163Z,101271.44
2022-11-02T05:35:14.401Z,101289.69
2022-11-02T05:37:43.944Z,101280.03
2022-11-02T05:40:14.058Z,101283.47
2022-11-02T05:42:42.165Z,101278.16
2022-11-02T05:45:11.443Z,101290.41
2022-11-02T05:47:39.633Z,101288.66
2022-11-02T05:50:08.680Z,101286.03
2022-11-02T05:52:36.907Z,101295.63
2022-11-02T05:55:08.598Z,101289.47
2022-11-02T05:57:36.791Z,101294.69
2022-11-02T06:00:06.210Z,101296.41
2022-11-02T06:02:35.815Z,101293.81
2022-11-02T06:05:04.127Z,101296.41
2022-11-02T06:07:32.341Z,101294.69
2022-11-02T06:10:00.493Z,101301.66
2022-11-02T06:12:30.160Z,101293.75
2022-11-02T06:14:58.315Z,101319.09
2022-11-02T06:17:26.453Z,101316.44
2022-11-02T06:19:54.567Z,101318.16
2022-11-02T06:22:22.722Z,101335.63
2022-11-02T06:24:50.837Z,101329.56
2022-11-02T06:27:20.246Z,101327.84
2022-11-02T06:29:49.812Z,101324.31
2022-11-02T06:32:18.315Z,101332.19
2022-11-02T06:34:46.443Z,101345.31
2022-11-02T06:37:14.597Z,101343.53
2022-11-02T06:39:42.879Z,101346.19
2022-11-02T06:42:11.505Z,101351.50
2022-11-02T06:44:40.043Z,101344.53
2022-11-02T06:47:09.964Z,101353.34
2022-11-02T06:49:38.074Z,101351.59
2022-11-02T06:52:06.607Z,101376.16
2022-11-02T06:54:34.725Z,101377.94
2022-11-02T06:57:03.148Z,101376.22
2022-11-02T06:59:31.302Z,101367.50
2022-11-02T07:01:59.536Z,101385.91
2022-11-02T07:04:29.133Z,101378.91
2022-11-02T07:06:57.309Z,101396.41
2022-11-02T07:09:25.531Z,101390.31
2022-11-02T07:11:53.760Z,101416.59
2022-11-02T07:14:21.913Z,101420.19
2022-11-02T07:16:50.095Z,101424.59
2022-11-02T07:19:18.329Z,101434.25
2022-11-02T07:21:48.080Z,101432.50
2022-11-02T07:24:16.235Z,101439.50
2022-11-02T07:26:44.501Z,101440.38
2022-11-02T07:29:12.713Z,101466.63
2022-11-02T07:31:40.822Z,101470.16
2022-11-02T07:34:14.080Z,101472.78
2022-11-02T07:36:45.082Z,101471.94
2022-11-02T07:39:14.544Z,101484.22
2022-11-02T07:41:44.789Z,101499.09
2022-11-02T07:44:15.613Z,101493.84
2022-11-02T07:46:43.775Z,101494.69
2022-11-02T07:49:11.882Z,101491.22
2022-11-02T07:51:40.070Z,101492.97
2022-11-02T07:54:08.291Z,101502.59
2022-11-02T07:56:37.896Z,101503.47
2022-11-02T07:59:06.154Z,101513.03
2022-11-02T08:01:34.300Z,101519.16
2022-11-02T08:04:02.484Z,101505.97
2022-11-02T08:06:30.640Z,101519.09
2022-11-02T08:08:58.772Z,101525.22
2022-11-02T08:11:26.975Z,101533.16
2022-11-02T08:13:56.462Z,101534.09
2022-11-02T08:16:24.641Z,101545.53
2022-11-02T08:18:52.753Z,101535.09
2022-11-02T08:21:21.022Z,101541.25
2022-11-02T08:23:49.162Z,101545.69
2022-11-02T08:26:17.403Z,101560.56
2022-11-02T08:28:45.739Z,101556.22
2022-11-02T08:31:18.278Z,101550.94
2022-11-02T08:33:46.989Z,101554.50
2022-11-02T08:36:15.134Z,101567.69
2022-11-02T08:38:43.387Z,101566.88
2022-11-02T08:41:11.627Z,101578.31
2022-11-02T08:43:39.921Z,101582.78
2022-11-02T08:46:14.776Z,101579.34
2022-11-02T08:48:45.431Z,101586.34
2022-11-02T08:51:14.059Z,101576.69
2022-11-02T08:53:44.689Z,101590.63
2022-11-02T08:56:15.461Z,101597.66
2022-11-02T08:58:43.604Z,101589.88
2022-11-02T09:01:11.814Z,101594.25
2022-11-02T09:03:40.037Z,101603.91
2022-11-02T09:06:09.947Z,101603.91
2022-11-02T09:08:38.437Z,101596.00
2022-11-02T09:11:06.939Z,101613.56
2022-11-02T09:13:35.184Z,101599.53
2022-11-02T09:16:03.708Z,101609.16
2022-11-02T09:18:32.189Z,101615.31
2022-11-02T09:21:05.158Z,101629.34
2022-11-02T09:23:35.189Z,101632.00
2022-11-02T09:26:03.492Z,101634.69
2022-11-02T09:28:31.586Z,101625.06
2022-11-02T09:30:59.756Z,101633.91
2022-11-02T09:33:29.745Z,101653.28
2022-11-02T09:35:57.853Z,101657.69
2022-11-02T09:38:25.993Z,101666.50
2022-11-02T09:41:09.938Z,101654.28
2022-11-02T09:43:49.018Z,101646.41
2022-11-02T09:46:22.208Z,101656.06
2022-11-02T09:48:55.283Z,101660.47
2022-11-02T09:51:26.960Z,101666.66
2022-11-02T09:54:03.520Z,101687.72
2022-11-02T09:56:34.584Z,101700.94
2022-11-02T09:59:07.521Z,101700.94
2022-11-02T10:01:55.647Z,101693.00
2022-11-02T10:05:00.096Z,101703.59
2022-11-02T10:07:48.078Z,101698.31
2022-11-02T10:10:23.686Z,101718.53
2022-11-02T10:13:03.497Z,101728.16
2022-11-02T10:15:40.074Z,101726.38
2022-11-02T10:18:15.306Z,101751.00
2022-11-02T10:20:47.490Z,101743.06
2022-11-02T10:23:25.697Z,101735.16
2022-11-02T10:25:53.999Z,101736.91
2022-11-02T10:28:28.687Z,101761.50
2022-11-02T10:30:57.075Z,101757.13
2022-11-02T10:33:28.831Z,101811.56
2022-11-02T10:36:18.955Z,101761.47
2022-11-02T10:39:04.770Z,101740.38
2022-11-02T10:42:01.454Z,101776.38
2022-11-02T10:44:53.556Z,101766.72
2022-11-02T10:47:25.054Z,101767.59
2022-11-02T10:50:36.087Z,101796.59
2022-11-02T10:53:27.336Z,101785.19
2022-11-02T10:56:01.025Z,101795.69
2022-11-02T10:58:32.523Z,101796.59
2022-11-02T11:01:11.765Z,101796.66
2022-11-02T11:03:57.197Z,101789.63
2022-11-02T11:06:29.096Z,101801.09
2022-11-02T11:09:02.887Z,101801.97
2022-11-02T11:11:34.854Z,101805.47
2022-11-02T11:19:51.854Z,101815.03
2022-11-02T11:22:29.908Z,101828.19
2022-11-02T11:25:27.707Z,101812.38
2022-11-02T11:27:58.365Z,101824.66
2022-11-02T11:33:23.080Z,101824.66
2022-11-02T11:35:52.944Z,101825.53
2022-11-02T11:38:26.199Z,101827.28
2022-11-02T11:40:58.659Z,101819.34
2022-11-02T11:43:29.626Z,101825.50
2022-11-02T11:46:05.741Z,101818.53
2022-11-02T11:48:40.403Z,101811.53
2022-11-02T11:51:29.033Z,101819.50
2022-11-02T11:54:24.241Z,101823.16
2022-11-02T11:56:54.681Z,101821.41
2022-11-02T11:59:30.074Z,101828.47
2022-11-02T12:02:00.587Z,101813.50
2022-11-02T12:04:36.236Z,101824.94
2022-11-02T12:07:37.139Z,101819.69
2022-11-02T12:10:16.246Z,101820.56
2022-11-02T12:13:05.057Z,101824.94
2022-11-02T12:15:53.796Z,101837.28
2022-11-02T12:18:40.299Z,101831.97
2022-11-02T12:21:24.792Z,101845.16
2022-11-02T12:24:34.704Z,101826.72
2022-11-02T12:27:38.640Z,101825.81
2022-11-02T12:30:18.537Z,101817.91
2022-11-02T12:33:07.009Z,101819.63
2022-11-02T12:35:58.256Z,101831.97
2022-11-02T12:38:55.036Z,101820.53
2022-11-02T12:41:38.960Z,101827.59
2022-11-02T12:44:28.296Z,101822.25
2022-11-02T12:47:03.378Z,101822.97
2022-11-02T12:49:46.247Z,101831.47
2022-11-02T12:52:29.338Z,101824.03
2022-11-02T12:55:03.058Z,101829.69
2022-11-02T12:57:37.072Z,101811.66
2022-11-02T13:00:17.055Z,101837.13
2022-11-02T13:02:57.850Z,101830.81
2022-11-02T13:05:31.379Z,101834.13
2022-11-02T13:08:08.133Z,101830.34
2022-11-02T13:10:48.232Z,101840.97
2022-11-02T13:13:28.528Z,101816.22
2022-11-02T13:15:57.487Z,101820.44
2022-11-02T13:18:31.624Z,101827.91
2022-11-02T13:21:04.167Z,101824.56
2022-11-02T13:23:39.355Z,101844.97
2022-11-02T13:26:21.445Z,101833.63
2022-11-02T13:28:55.136Z,101825.78
2022-11-02T13:31:31.590Z,101832.84
2022-11-02T13:34:04.090Z,101832.84
2022-11-02T13:36:33.133Z,101833.75
2022-11-02T13:39:08.590Z,101834.63
2022-11-02T13:42:23.362Z,101838.16
2022-11-02T13:45:30.248Z,101843.44
2022-11-02T13:48:21.008Z,101836.38
2022-11-02T13:50:53.373Z,101835.50
2022-11-02T13:53:28.360Z,101830.22
2022-11-02T13:56:01.325Z,101831.13
2022-11-02T13:58:36.668Z,101834.66
2022-11-02T14:01:09.084Z,101828.47
2022-11-02T14:03:50.936Z,101835.50
2022-11-02T14:06:23.327Z,101825.81
2022-11-02T14:08:55.155Z,101826.72
2022-11-02T14:11:37.282Z,101831.97
2022-11-02T14:14:26.095Z,101833.75
2022-11-02T14:17:16.848Z,101832.88
2022-11-02T14:19:56.859Z,101831.13
2022-11-02T14:22:25.313Z,101836.41
2022-11-02T14:25:15.807Z,101841.66
2022-11-02T14:27:45.115Z,101839.03
2022-11-02T14:30:49.046Z,101835.50
2022-11-02T14:33:36.508Z,101848.69
2022-11-02T14:36:11.742Z,101840.78
2022-11-02T14:42:07.378Z,101841.63
2022-11-02T14:45:06.851Z,101845.16
2022-11-02T14:47:39.874Z,101837.25
2022-11-02T14:50:16.430Z,101834.59
2022-11-02T14:53:01.511Z,101826.66
2022-11-02T14:55:32.158Z,101822.22
2022-11-02T14:58:10.594Z,101820.44
2022-11-02T15:00:56.868Z,101828.31
2022-11-02T15:03:37.761Z,101825.66
2022-11-02T15:06:17.479Z,101821.28
2022-11-02T15:08:57.749Z,101824.75
2022-11-02T15:11:46.123Z,101831.78
2022-11-02T15:14:55.813Z,101834.38
2022-11-02T15:18:01.844Z,101827.34
2022-11-02T15:20:33.604Z,101831.75
2022-11-02T15:23:30.572Z,101824.72
2022-11-02T15:26:01.131Z,101818.53
2022-11-02T15:28:34.030Z,101825.56
2022-11-02T15:31:08.320Z,101816.75
2022-11-02T15:33:40.221Z,101818.50
2022-11-02T15:36:19.155Z,101828.13
2022-11-02T15:38:50.800Z,101816.66
2022-11-02T15:41:28.170Z,101821.06
2022-11-02T15:44:25.925Z,101817.50
2022-11-02T15:47:08.153Z,101813.06
2022-11-02T15:50:11.888Z,101814.78
2022-11-02T15:53:23.443Z,101819.97
2022-11-02T15:56:08.161Z,101824.28
2022-11-02T15:58:48.905Z,101820.75
2022-11-02T16:01:22.736Z,101818.03
2022-11-02T16:03:58.197Z,101817.09
2022-11-02T16:06:29.541Z,101811.78
2022-11-02T16:09:02.507Z,101815.25
2022-11-02T16:11:31.951Z,101819.56
2022-11-02T16:14:18.707Z,101814.25
2022-11-02T16:16:51.440Z,101821.19
2022-11-02T16:19:21.281Z,101814.13
2022-11-02T16:21:50.441Z,101811.47
2022-11-02T16:24:21.336Z,101823.72
2022-11-02T16:26:50.560Z,101826.31
2022-11-02T16:29:32.241Z,101824.53
2022-11-02T16:32:02.402Z,101835.06
2022-11-02T16:34:33.686Z,101825.41
2022-11-02T16:37:09.158Z,101826.25
2022-11-02T16:39:44.025Z,101817.47
2022-11-02T16:42:19.135Z,101824.44
2022-11-02T16:44:57.677Z,101827.03
2022-11-02T16:47:39.046Z,101818.25
2022-11-02T16:50:22.328Z,101810.34
2022-11-02T16:52:59.270Z,101817.34
2022-11-02T16:55:39.871Z,101816.44
2022-11-02T16:58:16.077Z,101818.19
2022-11-02T17:00:58.547Z,101816.44
2022-11-02T17:03:31.478Z,101815.56
2022-11-02T17:06:03.413Z,101816.44
2022-11-02T17:08:34.673Z,101823.47
2022-11-02T17:11:07.212Z,101812.06
2022-11-02T17:13:39.394Z,101814.69
2022-11-02T17:16:12.482Z,101812.91
2022-11-02T17:18:41.615Z,101809.34
2022-11-02T17:21:33.703Z,101812.88
2022-11-02T17:24:03.136Z,101813.75
2022-11-02T17:26:38.503Z,101807.63
2022-11-02T17:29:34.651Z,101811.94
2022-11-02T17:32:05.035Z,101811.94
2022-11-02T17:34:33.305Z,101808.41
2022-11-02T17:37:01.558Z,101812.78
2022-11-02T17:39:29.742Z,101805.81
2022-11-02T17:42:17.574Z,101808.41
2022-11-02T17:44:46.521Z,101811.94
2022-11-02T17:47:19.082Z,101818.94
2022-11-02T17:49:47.323Z,101810.16
2022-11-02T17:52:16.921Z,101805.78
2022-11-02T17:54:45.114Z,101802.25
2022-11-02T17:57:17.207Z,101789.13
2022-11-02T17:59:45.494Z,101791.75
2022-11-02T18:02:15.038Z,101781.19
2022-11-02T18:07:16.944Z,101784.59
2022-11-02T18:09:45.171Z,101777.56
2022-11-02T18:12:16.221Z,101771.41
2022-11-02T18:14:44.711Z,101774.03
2022-11-02T18:17:13.152Z,101784.47
2022-11-02T18:19:41.472Z,101775.66
2022-11-02T18:22:11.270Z,101766.00
2022-11-02T18:24:39.672Z,101772.06
2022-11-02T18:27:07.834Z,101768.53
2022-11-02T18:29:37.361Z,101762.34
2022-11-02T18:32:05.749Z,101752.66
2022-11-02T18:34:33.994Z,101762.25
2022-11-02T18:37:02.206Z,101758.72
2022-11-02T18:39:30.403Z,101754.34
2022-11-02T18:41:58.561Z,101756.06
2022-11-02T18:44:26.798Z,101756.00
2022-11-02T18:46:58.127Z,101754.22
2022-11-02T18:49:26.499Z,101750.69
2022-11-02T18:51:54.714Z,101749.78
2022-11-02T18:54:23.346Z,101734.03
2022-11-02T18:56:51.552Z,101727.91
2022-11-02T18:59:19.719Z,101734.94
2022-11-02T19:01:48.014Z,101726.19
2022-11-02T19:04:18.090Z,101715.66
2022-11-02T19:07:04.118Z,101713.88
2022-11-02T19:09:33.456Z,101706.88
2022-11-02T19:12:08.402Z,101699.00
2022-11-02T19:14:39.622Z,101696.38
2022-11-02T19:17:09.188Z,101691.13
2022-11-02T19:19:40.915Z,101681.50
2022-11-02T19:22:10.929Z,101692.00
2022-11-02T19:24:39.145Z,101686.75
2022-11-02T19:27:07.581Z,101678.91
2022-11-02T19:29:35.768Z,101669.25
2022-11-02T19:32:04.142Z,101669.25
2022-11-02T19:34:33.715Z,101670.13
2022-11-02T19:37:03.349Z,101657.00
2022-11-02T19:39:32.181Z,101659.63
2022-11-02T19:42:00.757Z,101659.63
2022-11-02T19:44:28.910Z,101657.91
2022-11-02T19:46:57.212Z,101653.53
2022-11-02T19:49:25.458Z,101650.94
2022-11-02T19:51:54.946Z,101643.13
2022-11-02T19:54:24.478Z,101645.75
2022-11-02T19:56:52.681Z,101634.38
2022-11-02T19:59:20.943Z,101633.47
2022-11-02T20:01:50.607Z,101639.59
2022-11-02T20:04:19.115Z,101630.84
2022-11-02T20:06:47.306Z,101631.66
2022-11-02T20:09:18.800Z,101622.06
2022-11-02T20:11:49.842Z,101626.47
2022-11-02T20:14:18.756Z,101623.84
2022-11-02T20:16:58.415Z,101621.22
2022-11-02T20:19:32.679Z,101610.72
2022-11-02T20:22:00.857Z,101615.16
2022-11-02T20:24:29.040Z,101617.78
2022-11-02T20:27:02.772Z,101616.03
2022-11-02T20:29:31.205Z,101613.38
2022-11-02T20:31:59.322Z,101604.75
2022-11-02T20:34:27.561Z,101599.50
2022-11-02T20:36:55.758Z,101609.19
2022-11-02T20:39:24.939Z,101595.25
2022-11-02T20:41:55.922Z,101597.03
2022-11-02T20:44:25.533Z,101598.81
2022-11-02T20:46:54.028Z,101599.72
2022-11-02T20:49:48.315Z,101599.75
2022-11-02T20:52:10.943Z,101597.13
2022-11-02T20:54:39.193Z,101591.06
2022-11-02T20:57:07.492Z,101592.00
2022-11-02T20:59:37.023Z,101579.78
2022-11-02T21:02:05.344Z,101578.94
2022-11-02T21:04:33.600Z,101576.31
2022-11-02T21:07:01.850Z,101571.09
2022-11-02T21:09:30.621Z,101571.13
2022-11-02T21:12:16.562Z,101571.16
2022-11-02T21:14:46.778Z,101562.41
2022-11-02T21:17:15.344Z,101562.41
2022-11-02T21:19:43.540Z,101557.13
2022-11-02T21:22:11.749Z,101562.41
2022-11-02T21:24:39.957Z,101553.63
2022-11-02T21:27:08.200Z,101561.53
2022-11-02T21:29:36.420Z,101560.69
2022-11-02T21:32:07.624Z,101553.66
2022-11-02T21:34:35.830Z,101553.63
2022-11-02T21:37:06.524Z,101551.88
2022-11-02T21:39:35.888Z,101543.13
2022-11-02T21:42:05.060Z,101545.75
2022-11-02T21:44:33.243Z,101553.63
2022-11-02T21:47:01.381Z,101546.63
2022-11-02T21:49:31.487Z,101540.47
2022-11-02T21:51:59.627Z,101543.94
2022-11-02T21:54:27.786Z,101540.44
2022-11-02T21:56:56.051Z,101536.06
2022-11-02T21:59:24.328Z,101530.81
2022-11-02T22:01:51.717Z,101524.66
2022-11-02T22:04:25.333Z,101536.94
2022-11-02T22:06:55.761Z,101525.53
2022-11-02T22:09:24.164Z,101520.28
2022-11-02T22:12:14.114Z,101516.78
2022-11-02T22:14:44.091Z,101507.97
2022-11-02T22:17:21.859Z,101511.50
2022-11-02T22:19:57.129Z,101504.47
2022-11-02T22:22:27.671Z,101503.59
2022-11-02T22:24:55.898Z,101503.59
2022-11-02T22:27:24.347Z,101511.50
2022-11-02T22:29:52.547Z,101500.13
2022-11-02T22:32:22.345Z,101492.22
2022-11-02T22:34:50.470Z,101493.13
2022-11-02T22:37:36.004Z,101486.97
2022-11-02T22:40:06.832Z,101486.09
2022-11-02T22:42:39.656Z,101474.72
2022-11-02T22:45:11.991Z,101475.63
2022-11-02T22:47:40.701Z,101465.09
2022-11-02T22:50:09.977Z,101465.97
2022-11-02T22:52:38.364Z,101462.47
2022-11-02T22:55:10.405Z,101458.97
2022-11-02T22:57:38.724Z,101452.81
2022-11-02T23:00:08.751Z,101441.47
2022-11-02T23:02:37.020Z,101444.06
2022-11-02T23:05:05.553Z,101446.72
2022-11-02T23:07:33.747Z,101443.19
2022-11-02T23:10:22.042Z,101442.31
2022-11-02T23:12:50.562Z,101435.34
2022-11-02T23:15:18.723Z,101421.34
2022-11-02T23:17:49.546Z,101416.97
2022-11-02T23:20:16.886Z,101432.75
2022-11-02T23:23:02.873Z,101419.59
2022-11-02T23:25:31.328Z,101402.97
2022-11-02T23:28:19.320Z,101409.97
2022-11-02T23:31:04.976Z,101404.72
2022-11-02T23:33:36.192Z,101391.56
2022-11-02T23:36:13.826Z,101395.97
2022-11-02T23:39:00.777Z,101395.94
2022-11-02T23:41:30.727Z,101404.69
2022-11-02T23:44:12.688Z,101395.03
2022-11-02T23:46:42.140Z,101395.91
2022-11-02T23:49:10.622Z,101392.44
2022-11-02T23:51:56.717Z,101384.53
2022-11-02T23:54:42.493Z,101380.19
2022-11-02T23:57:10.720Z,101396.81
2022-11-02T23:59:40.441Z,101390.69
